Time;durP1;ratioP1;P1;durP2;ratioP2;P2;SDS_P1;SDS_P2;PMS_P1;PMS_P2;Temp;Humidity;BMP_temperature;BMP_pressure;BME280_temperature;BME280_humidity;BME280_pressure;Samples;Min_cycle;Max_cycle;Signal;HPM_P1;HPM_P2
2023/06/01 00:00:09;;;;;;;3.60;3.30;;;;;;;12.80;100.00;97153.59;5009825;28;20322;-68
2023/06/01 00:02:38;;;;;;;5.07;3.63;;;;;;;12.78;100.00;97149.50;4974579;28;20682;-67
2023/06/01 00:05:06;;;;;;;3.40;2.90;;;;;;;12.70;100.00;97153.13;5014712;28;20676;-68
2023/06/01 00:07:34;;;;;;;4.10;3.70;;;;;;;12.65;100.00;97145.75;5011679;28;20224;-69
2023/06/01 00:10:02;;;;;;;3.43;3.20;;;;;;;12.65;100.00;97150.25;4968968;28;20242;-67
2023/06/01 00:12:30;;;;;;;3.13;2.70;;;;;;;12.57;100.00;97148.59;4985440;28;20649;-69
2023/06/01 00:14:57;;;;;;;3.57;3.30;;;;;;;12.58;100.00;97147.56;4989042;28;20303;-68
2023/06/01 00:17:25;;;;;;;4.20;3.13;;;;;;;12.48;100.00;97128.50;5008473;28;20314;-69
2023/06/01 00:19:54;;;;;;;3.60;3.30;;;;;;;12.42;100.00;97146.88;4982394;28;20297;-68
2023/06/01 00:22:23;;;;;;;3.20;3.00;;;;;;;12.39;100.00;97141.13;5011863;28;20296;-69
2023/06/01 00:24:51;;;;;;;3.07;2.87;;;;;;;12.34;100.00;97149.72;4955706;28;20208;-67
2023/06/01 00:27:19;;;;;;;3.30;3.03;;;;;;;12.22;100.00;97146.78;4984673;28;20781;-69
2023/06/01 00:29:47;;;;;;;3.63;3.10;;;;;;;12.16;100.00;97140.41;4985031;28;20224;-69
2023/06/01 00:32:15;;;;;;;3.77;3.40;;;;;;;12.18;100.00;97144.69;5011913;28;20237;-68
2023/06/01 00:34:42;;;;;;;5.20;4.07;;;;;;;12.24;100.00;97142.09;4980422;28;20855;-68
2023/06/01 00:37:11;;;;;;;3.00;2.80;;;;;;;11.98;100.00;97114.31;4983849;28;20929;-66
2023/06/01 00:39:39;;;;;;;3.13;2.93;;;;;;;12.21;100.00;97144.31;5011948;28;20236;-68
2023/06/01 00:42:07;;;;;;;4.63;3.07;;;;;;;12.18;100.00;97140.22;4972955;28;20434;-67
2023/06/01 00:44:35;;;;;;;3.57;3.27;;;;;;;12.21;100.00;97136.34;4984460;28;20291;-67
2023/06/01 00:47:03;;;;;;;4.57;3.83;;;;;;;12.20;100.00;97129.38;5004549;28;20408;-68
2023/06/01 00:49:30;;;;;;;3.50;2.70;;;;;;;12.20;100.00;97132.88;5012303;28;20224;-67
2023/06/01 00:51:58;;;;;;;3.10;2.90;;;;;;;12.18;100.00;97129.59;4979154;28;20210;-68
2023/06/01 00:54:27;;;;;;;3.60;3.23;;;;;;;12.15;100.00;97130.78;5010627;28;20320;-67
2023/06/01 00:56:55;;;;;;;4.30;3.30;;;;;;;12.16;100.00;97131.63;4961417;28;20240;-68
2023/06/01 00:59:23;;;;;;;4.80;3.33;;;;;;;12.11;100.00;97134.03;5007677;28;20296;-69
2023/06/01 01:01:52;;;;;;;4.30;3.20;;;;;;;11.97;100.00;97127.81;4983887;28;20215;-68
2023/06/01 01:04:25;;;;;;;4.03;3.17;;;;;;;11.98;100.00;97130.25;5010029;28;20291;-67
2023/06/01 01:07:00;;;;;;;3.10;2.90;;;;;;;11.90;100.00;97130.41;4977118;28;20228;-66
2023/06/01 01:09:35;;;;;;;3.53;3.23;;;;;;;11.85;100.00;97127.50;5006561;28;20757;-64
2023/06/01 01:12:08;;;;;;;4.20;3.80;;;;;;;11.80;100.00;97132.59;4965061;28;20350;-68
2023/06/01 01:14:41;;;;;;;3.93;3.63;;;;;;;11.72;100.00;97133.53;5006277;28;20207;-66
2023/06/01 01:17:12;;;;;;;5.50;4.03;;;;;;;11.65;100.00;97130.81;4996149;28;20366;-66
2023/06/01 01:19:53;;;;;;;3.40;3.10;;;;;;;11.57;100.00;97134.47;5009993;28;20907;-69
2023/06/01 01:22:40;;;;;;;3.37;3.17;;;;;;;11.53;100.00;97130.50;4978032;28;20213;-68
2023/06/01 01:25:36;;;;;;;3.40;3.20;;;;;;;11.51;100.00;97132.53;5005755;28;20298;-68
2023/06/01 01:28:11;;;;;;;3.57;3.27;;;;;;;11.49;100.00;97139.06;4956004;28;21133;-70
2023/06/01 01:30:42;;;;;;;3.53;3.17;;;;;;;11.27;100.00;97107.22;5008046;28;20294;-68
2023/06/01 01:33:10;;;;;;;3.40;3.10;;;;;;;11.43;100.00;97138.00;5001057;28;20433;-68
2023/06/01 01:35:39;;;;;;;3.20;3.00;;;;;;;11.38;100.00;97135.09;5010210;28;20213;-69
2023/06/01 01:38:07;;;;;;;4.90;3.27;;;;;;;11.33;100.00;97130.34;4972059;28;20500;-69
2023/06/01 01:40:35;;;;;;;3.13;2.93;;;;;;;11.34;100.00;97133.84;5006500;28;20733;-68
2023/06/01 01:43:03;;;;;;;4.27;3.43;;;;;;;11.33;100.00;97133.00;5006896;28;20236;-68
2023/06/01 01:45:31;;;;;;;4.00;3.70;;;;;;;11.36;100.00;97127.31;4963668;28;20296;-67
2023/06/01 01:48:05;;;;;;;4.47;3.27;;;;;;;11.36;100.00;97132.63;4986833;28;20252;-68
2023/06/01 01:50:37;;;;;;;3.13;2.93;;;;;;;11.34;100.00;97115.25;5009081;28;20265;-68
2023/06/01 01:53:06;;;;;;;3.87;3.30;;;;;;;11.41;100.00;97126.75;4973913;28;20757;-67
2023/06/01 01:55:34;;;;;;;3.23;3.00;;;;;;;11.42;100.00;97123.09;5006773;28;20675;-68
2023/06/01 01:58:02;;;;;;;5.00;3.23;;;;;;;11.43;100.00;97119.41;5002750;28;20372;-67
2023/06/01 02:00:31;;;;;;;3.77;3.47;;;;;;;11.44;100.00;97121.06;4966102;28;20212;-68
2023/06/01 02:03:00;;;;;;;3.70;3.40;;;;;;;11.43;100.00;97117.59;4985951;28;20406;-69
2023/06/01 02:05:28;;;;;;;4.50;3.93;;;;;;;11.43;100.00;97116.75;5002869;28;20217;-68
2023/06/01 02:07:56;;;;;;;3.67;3.37;;;;;;;11.33;100.00;97108.31;4981071;28;21679;-66
2023/06/01 02:10:24;;;;;;;3.17;2.80;;;;;;;11.34;100.00;97110.75;5001335;28;20294;-67
2023/06/01 02:12:52;;;;;;;3.50;3.20;;;;;;;11.34;100.00;97109.97;5005949;28;20200;-69
2023/06/01 02:15:19;;;;;;;3.97;3.30;;;;;;;11.29;100.00;97103.41;4970466;28;20741;-68
2023/06/01 02:17:47;;;;;;;5.77;3.50;;;;;;;11.30;100.00;97101.53;4998074;28;20623;-70
2023/06/01 02:20:17;;;;;;;3.90;3.60;;;;;;;11.27;100.00;97101.94;5006960;28;20200;-69
2023/06/01 02:22:44;;;;;;;2.97;2.63;;;;;;;11.22;100.00;97099.88;5004686;28;20201;-68
2023/06/01 02:25:12;;;;;;;3.87;3.40;;;;;;;11.18;100.00;97101.25;4973677;28;20311;-69
2023/06/01 02:27:40;;;;;;;4.20;2.97;;;;;;;11.13;100.00;97096.50;5004600;28;20282;-69
2023/06/01 02:30:08;;;;;;;4.83;3.40;;;;;;;11.05;100.00;97096.66;4959585;28;21261;-66
2023/06/01 02:32:37;;;;;;;4.73;3.50;;;;;;;10.99;100.00;97092.91;5012569;28;20283;-70
2023/06/01 02:35:06;;;;;;;3.40;3.20;;;;;;;10.93;100.00;97090.19;4963261;28;20208;-68
2023/06/01 02:37:36;;;;;;;3.47;3.17;;;;;;;10.87;100.00;97089.13;5007824;28;20315;-70
2023/06/01 02:40:04;;;;;;;4.87;3.50;;;;;;;10.86;100.00;97092.78;4973013;28;20291;-69
2023/06/01 02:42:31;;;;;;;5.03;4.30;;;;;;;10.75;100.00;97087.94;5002663;28;20899;-68
2023/06/01 02:44:59;;;;;;;4.20;3.30;;;;;;;10.68;100.00;97094.00;5006263;28;20364;-68
2023/06/01 02:47:26;;;;;;;3.87;3.57;;;;;;;10.65;100.00;97088.28;4968934;28;20220;-70
2023/06/01 02:49:54;;;;;;;3.57;3.37;;;;;;;10.61;100.00;97093.13;4989600;28;20359;-67
2023/06/01 02:52:22;;;;;;;3.93;3.63;;;;;;;10.58;100.00;97090.84;5004970;28;20294;-70
2023/06/01 02:54:51;;;;;;;3.57;3.37;;;;;;;10.56;100.00;97092.88;4985130;28;20835;-68
2023/06/01 02:57:18;;;;;;;4.47;3.40;;;;;;;10.28;100.00;97061.72;4970383;28;20974;-68
2023/06/01 02:59:46;;;;;;;3.40;3.20;;;;;;;10.46;100.00;97090.50;5005235;28;20250;-69
2023/06/01 03:02:13;;;;;;;4.10;3.63;;;;;;;10.48;100.00;97088.47;4960568;28;20216;-70
2023/06/01 03:04:43;;;;;;;6.40;3.97;;;;;;;10.45;100.00;97088.06;4987752;28;20236;-68
2023/06/01 03:07:10;;;;;;;4.03;3.73;;;;;;;10.48;100.00;97087.69;4989506;28;20884;-72
2023/06/01 03:09:38;;;;;;;3.67;3.40;;;;;;;10.41;100.00;97083.09;5009663;28;20227;-65
2023/06/01 03:12:08;;;;;;;4.97;3.90;;;;;;;10.35;100.00;97077.72;4959176;28;20212;-67
2023/06/01 03:14:35;;;;;;;4.13;3.50;;;;;;;10.38;100.00;97083.44;4995126;28;20204;-68
2023/06/01 03:17:03;;;;;;;3.73;3.43;;;;;;;10.39;100.00;97086.91;4966952;28;20327;-69
2023/06/01 03:19:31;;;;;;;4.37;3.93;;;;;;;10.32;100.00;97084.19;5007641;28;20234;-68
2023/06/01 03:21:59;;;;;;;4.77;3.87;;;;;;;10.28;100.00;97088.22;4989993;28;20215;-68
2023/06/01 03:24:27;;;;;;;3.80;3.60;;;;;;;10.26;100.00;97087.56;4999512;28;20239;-68
2023/06/01 03:26:56;;;;;;;4.37;3.97;;;;;;;10.26;100.00;97091.06;4961835;28;20247;-69
2023/06/01 03:29:25;;;;;;;3.70;3.40;;;;;;;10.25;100.00;97085.94;5000698;28;20326;-66
2023/06/01 03:31:52;;;;;;;3.80;3.40;;;;;;;10.14;100.00;97098.63;4964002;28;20208;-70
2023/06/01 03:34:21;;;;;;;4.07;3.67;;;;;;;10.13;100.00;97102.28;4999440;28;20322;-69
2023/06/01 03:36:48;;;;;;;3.70;3.40;;;;;;;10.18;100.00;97101.72;4987047;28;20205;-66
2023/06/01 03:39:16;;;;;;;3.93;3.33;;;;;;;10.17;100.00;97102.72;5009674;28;20347;-68
2023/06/01 03:41:44;;;;;;;6.83;4.10;;;;;;;10.16;100.00;97102.94;5008764;28;20678;-67
2023/06/01 03:44:12;;;;;;;5.60;3.70;;;;;;;10.12;100.00;97105.94;4967459;28;20200;-67
2023/06/01 03:46:41;;;;;;;4.33;3.57;;;;;;;10.17;100.00;97101.91;5009043;28;20204;-65
2023/06/01 03:49:09;;;;;;;4.47;4.10;;;;;;;10.17;100.00;97100.06;4971480;28;20529;-68
2023/06/01 03:51:36;;;;;;;3.93;3.27;;;;;;;10.18;100.00;97103.56;4992354;28;20232;-67
2023/06/01 03:54:04;;;;;;;4.20;3.80;;;;;;;10.16;100.00;97102.94;5007114;28;20585;-68
2023/06/01 03:56:32;;;;;;;4.23;3.80;;;;;;;10.18;100.00;97101.72;5011836;28;20193;-67
2023/06/01 03:59:00;;;;;;;5.93;4.30;;;;;;;10.21;100.00;97104.00;4975866;28;21790;-65
2023/06/01 04:01:28;;;;;;;4.30;3.90;;;;;;;10.24;100.00;97103.66;5012716;28;20251;-66
2023/06/01 04:03:58;;;;;;;5.00;3.90;;;;;;;10.23;100.00;97099.38;4976298;28;20223;-69
2023/06/01 04:06:29;;;;;;;6.97;3.90;;;;;;;10.37;100.00;97102.19;4987919;28;20860;-67
2023/06/01 04:08:58;;;;;;;4.90;3.80;;;;;;;10.45;100.00;97104.75;5005616;28;20238;-68
2023/06/01 04:11:26;;;;;;;8.47;3.90;;;;;;;10.51;100.00;97098.69;5008508;28;20251;-68
2023/06/01 04:13:54;;;;;;;4.47;4.07;;;;;;;10.63;100.00;97096.41;4994902;28;20239;-69
2023/06/01 04:16:22;;;;;;;4.40;3.77;;;;;;;10.69;100.00;97103.59;4991850;28;20306;-70
2023/06/01 04:18:50;;;;;;;4.93;4.23;;;;;;;10.82;100.00;97102.94;5013981;28;20598;-70
2023/06/01 04:21:20;;;;;;;3.80;3.50;;;;;;;10.96;100.00;97106.53;4979270;28;20477;-66
2023/06/01 04:23:48;;;;;;;3.50;3.20;;;;;;;10.99;100.00;97100.88;4986673;28;22283;-68
2023/06/01 04:26:17;;;;;;;4.40;3.70;;;;;;;11.11;100.00;97098.53;5007227;28;20387;-68
2023/06/01 04:28:45;;;;;;;3.80;3.47;;;;;;;11.23;100.00;97105.97;5006169;28;21018;-68
2023/06/01 04:31:16;;;;;;;4.90;4.40;;;;;;;11.30;100.00;97101.53;4976560;28;20418;-68
2023/06/01 04:33:45;;;;;;;5.07;4.13;;;;;;;11.42;100.00;97105.34;5015636;28;20209;-67
2023/06/01 04:36:13;;;;;;;3.97;3.43;;;;;;;11.53;100.00;97103.19;4965057;28;20293;-66
2023/06/01 04:38:42;;;;;;;3.87;3.57;;;;;;;11.67;100.00;97106.75;4990528;28;20782;-68
2023/06/01 04:41:10;;;;;;;4.33;3.83;;;;;;;11.72;100.00;97101.69;5010206;28;20774;-67
2023/06/01 04:43:39;;;;;;;5.03;3.40;;;;;;;11.81;100.00;97111.13;5006739;28;20675;-66
2023/06/01 04:46:07;;;;;;;3.93;3.63;;;;;;;11.99;100.00;97101.88;4976152;28;20231;-69
2023/06/01 04:48:36;;;;;;;5.83;3.10;;;;;;;12.20;100.00;97105.47;5012664;28;20274;-66
2023/06/01 04:51:04;;;;;;;4.50;3.30;;;;;;;12.32;100.00;97098.63;4971509;28;20259;-68
2023/06/01 04:53:31;;;;;;;4.57;3.67;;;;;;;12.45;100.00;97103.13;4990848;28;20212;-67
2023/06/01 04:56:00;;;;;;;3.80;3.10;;;;;;;12.58;100.00;97097.91;5006843;28;20227;-69
2023/06/01 04:58:28;;;;;;;4.53;4.10;;;;;;;12.73;100.00;97099.56;5009052;28;20593;-69
2023/06/01 05:00:56;;;;;;;4.17;3.80;;;;;;;12.78;100.00;97105.09;4979997;28;20299;-70
2023/06/01 05:03:24;;;;;;;4.23;3.80;;;;;;;12.79;100.00;97104.09;5012008;28;20963;-67
2023/06/01 05:05:51;;;;;;;3.73;3.20;;;;;;;12.88;100.00;97102.06;4977472;28;20211;-67
2023/06/01 05:08:19;;;;;;;3.97;3.67;;;;;;;13.11;100.00;97103.56;4986617;28;21781;-68
2023/06/01 05:10:46;;;;;;;3.80;3.30;;;;;;;13.19;100.00;97106.03;5005779;28;20230;-69
2023/06/01 05:13:15;;;;;;;4.87;3.47;;;;;;;13.34;100.00;97103.19;5007903;28;20322;-65
2023/06/01 05:15:43;;;;;;;3.83;3.53;;;;;;;13.49;100.00;97105.69;5004379;28;20555;-67
2023/06/01 05:18:11;;;;;;;3.93;3.63;;;;;;;13.49;100.00;97100.34;4978763;28;20227;-65
2023/06/01 05:20:38;;;;;;;5.77;3.57;;;;;;;13.56;100.00;97098.50;4969747;28;20326;-66
2023/06/01 05:23:06;;;;;;;3.70;3.47;;;;;;;13.58;100.00;97101.78;4989247;28;20260;-68
2023/06/01 05:25:34;;;;;;;3.73;3.30;;;;;;;13.55;100.00;97106.69;5007595;28;20717;-67
2023/06/01 05:28:02;;;;;;;3.77;3.50;;;;;;;13.61;100.00;97103.19;5005716;28;20768;-68
2023/06/01 05:30:31;;;;;;;3.57;3.10;;;;;;;13.65;100.00;97115.09;5006700;28;20332;-66
2023/06/01 05:32:59;;;;;;;3.93;3.53;;;;;;;13.71;100.00;97105.44;4981786;28;20240;-68
2023/06/01 05:35:27;;;;;;;4.10;3.37;;;;;;;13.80;100.00;97104.22;5013697;28;20902;-67
2023/06/01 05:37:55;;;;;;;4.00;3.20;;;;;;;13.69;100.00;97091.53;4964069;28;20371;-68
2023/06/01 05:40:22;;;;;;;5.60;3.13;;;;;;;13.91;100.00;97104.63;4995979;28;20882;-67
2023/06/01 05:42:50;;;;;;;6.37;3.43;;;;;;;14.01;100.00;97105.00;5009260;28;20197;-68
2023/06/01 05:45:18;;;;;;;4.30;4.00;;;;;;;14.24;100.00;97103.75;5004706;28;20212;-66
2023/06/01 05:47:46;;;;;;;3.80;3.60;;;;;;;14.43;100.00;97096.72;4980101;28;20618;-66
2023/06/01 05:50:14;;;;;;;3.40;3.10;;;;;;;14.52;100.00;97098.09;5009720;28;20897;-64
2023/06/01 05:52:42;;;;;;;4.00;3.57;;;;;;;14.54;100.00;97097.88;4968708;28;20228;-68
2023/06/01 05:55:10;;;;;;;3.80;3.50;;;;;;;14.59;100.00;97092.75;4984869;28;20210;-67
2023/06/01 05:57:38;;;;;;;4.30;3.93;;;;;;;14.82;100.00;97097.59;5009459;28;20428;-67
2023/06/01 06:00:09;;;;;;;4.10;3.80;;;;;;;14.76;100.00;97090.41;5009519;28;20700;-67
2023/06/01 06:02:37;;;;;;;3.70;3.30;;;;;;;14.94;100.00;97097.72;4980395;28;20204;-66
2023/06/01 06:05:08;;;;;;;3.83;3.53;;;;;;;15.00;100.00;97090.72;5007580;28;20216;-69
2023/06/01 06:07:35;;;;;;;6.27;3.53;;;;;;;15.11;100.00;97086.53;4968186;28;20711;-68
2023/06/01 06:10:03;;;;;;;3.60;3.40;;;;;;;15.13;100.00;97089.81;4981651;28;20255;-68
2023/06/01 06:12:31;;;;;;;4.23;3.20;;;;;;;15.18;100.00;97096.16;5006389;28;20224;-66
2023/06/01 06:14:59;;;;;;;3.63;3.10;;;;;;;15.19;100.00;97088.94;5005628;28;20210;-68
2023/06/01 06:17:26;;;;;;;3.10;2.90;;;;;;;15.22;100.00;97087.72;5010260;28;20821;-68
2023/06/01 06:19:54;;;;;;;5.30;3.40;;;;;;;15.45;100.00;97081.78;4981465;28;20212;-69
2023/06/01 06:22:23;;;;;;;4.73;2.87;;;;;;;15.65;100.00;97089.63;4968411;28;22075;-67
2023/06/01 06:24:50;;;;;;;4.00;3.40;;;;;;;15.97;100.00;97089.56;4988360;28;20266;-65
2023/06/01 06:27:18;;;;;;;4.00;3.67;;;;;;;16.07;100.00;97097.06;5008339;28;20524;-67
2023/06/01 06:29:47;;;;;;;3.63;3.33;;;;;;;16.03;100.00;97095.88;5006981;28;20373;-68
2023/06/01 06:32:14;;;;;;;6.47;3.07;;;;;;;16.16;100.00;97093.06;5008415;28;20809;-67
2023/06/01 06:34:42;;;;;;;3.43;3.10;;;;;;;16.45;100.00;97090.69;4978515;28;20215;-67
2023/06/01 06:37:11;;;;;;;7.37;3.33;;;;;;;16.48;100.00;97095.59;4971424;28;20951;-68
2023/06/01 06:39:40;;;;;;;3.37;3.17;;;;;;;16.49;100.00;97086.53;4982825;28;20578;-68
2023/06/01 06:42:08;;;;;;;4.60;3.43;;;;;;;16.40;100.00;97085.19;5009688;28;20231;-67
2023/06/01 06:44:35;;;;;;;4.63;3.50;;;;;;;16.61;100.00;97086.56;5004652;28;20204;-68
2023/06/01 06:47:03;;;;;;;3.97;3.57;;;;;;;16.62;100.00;97084.72;5008476;28;20232;-70
2023/06/01 06:49:31;;;;;;;3.37;3.17;;;;;;;16.79;100.00;97091.06;4978889;28;20286;-62
2023/06/01 06:51:58;;;;;;;4.67;2.87;;;;;;;16.90;100.00;97094.84;5009448;28;20275;-69
2023/06/01 06:54:26;;;;;;;3.10;2.87;;;;;;;17.01;99.01;97087.94;4968612;28;20514;-66
2023/06/01 06:56:55;;;;;;;3.83;3.47;;;;;;;17.04;98.93;97087.50;4979370;28;20208;-68
2023/06/01 06:59:22;;;;;;;3.57;2.97;;;;;;;17.18;97.50;97090.78;5006888;28;20205;-67
2023/06/01 07:01:50;;;;;;;3.23;3.03;;;;;;;17.41;97.54;97089.19;5008820;28;20231;-69
2023/06/01 07:04:17;;;;;;;3.43;2.53;;;;;;;17.69;94.67;97084.25;5012414;28;20197;-66
2023/06/01 07:06:45;;;;;;;3.27;2.97;;;;;;;17.74;94.65;97089.72;4977217;28;20205;-67
2023/06/01 07:09:13;;;;;;;3.43;3.13;;;;;;;17.94;89.58;97081.31;4968480;28;20236;-67
2023/06/01 07:11:43;;;;;;;3.00;2.80;;;;;;;17.90;90.32;97080.16;4984156;28;20307;-66
2023/06/01 07:14:12;;;;;;;3.33;3.03;;;;;;;18.22;89.23;97075.25;5002447;28;20667;-68
2023/06/01 07:16:40;;;;;;;3.37;3.07;;;;;;;18.26;89.97;97077.47;5003276;28;20798;-63
2023/06/01 07:19:08;;;;;;;3.70;3.50;;;;;;;18.32;89.84;97077.34;5008560;28;20283;-67
2023/06/01 07:21:36;;;;;;;5.13;3.40;;;;;;;18.44;89.44;97074.63;4980483;28;20596;-68
2023/06/01 07:24:04;;;;;;;3.27;2.93;;;;;;;18.49;86.70;97074.72;4973171;28;20212;-68
2023/06/01 07:26:32;;;;;;;4.43;3.07;;;;;;;18.49;90.16;97076.59;4986095;28;20213;-67
2023/06/01 07:29:00;;;;;;;3.67;3.00;;;;;;;18.69;86.04;97070.81;5003302;28;20572;-68
2023/06/01 07:31:29;;;;;;;3.07;2.87;;;;;;;18.86;83.95;97072.75;5011635;28;20264;-65
2023/06/01 07:33:56;;;;;;;4.40;3.37;;;;;;;18.95;83.38;97065.91;5015344;28;21188;-69
2023/06/01 07:36:24;;;;;;;3.50;3.17;;;;;;;19.07;80.47;97068.59;5012968;28;20275;-66
2023/06/01 07:38:52;;;;;;;3.20;2.93;;;;;;;19.13;81.71;97072.97;4971184;28;20634;-68
2023/06/01 07:41:21;;;;;;;3.80;3.10;;;;;;;19.28;80.24;97063.53;4983767;28;20687;-64
2023/06/01 07:43:48;;;;;;;4.23;2.90;;;;;;;19.14;82.14;97063.06;4983186;28;20220;-66
2023/06/01 07:46:16;;;;;;;2.63;2.47;;;;;;;19.12;78.84;97057.94;5007091;28;20892;-66
2023/06/01 07:48:45;;;;;;;2.87;2.63;;;;;;;19.23;78.29;97057.03;5014690;28;20282;-66
2023/06/01 07:51:13;;;;;;;3.17;2.83;;;;;;;19.41;80.82;97057.03;5014746;28;20227;-67
2023/06/01 07:53:40;;;;;;;2.57;2.30;;;;;;;19.75;68.96;97055.16;4983548;28;20220;-65
2023/06/01 07:56:08;;;;;;;2.73;2.53;;;;;;;19.89;61.94;97060.19;4971677;28;20810;-66
2023/06/01 07:58:36;;;;;;;2.30;2.10;;;;;;;20.00;61.39;97053.91;4987181;28;21009;-67
2023/06/01 08:01:04;;;;;;;2.63;2.23;;;;;;;20.15;59.78;97058.69;5005782;28;20434;-67
2023/06/01 08:03:33;;;;;;;2.30;2.20;;;;;;;20.28;61.05;97057.50;5016203;28;20594;-63
2023/06/01 08:06:04;;;;;;;2.40;2.30;;;;;;;20.54;58.35;97061.31;5012906;28;20204;-68
2023/06/01 08:08:33;;;;;;;4.67;3.13;;;;;;;20.81;60.62;97055.19;4981970;28;20259;-66
2023/06/01 08:11:01;;;;;;;4.60;2.80;;;;;;;20.92;57.07;97052.59;4984744;28;20228;-68
2023/06/01 08:13:29;;;;;;;6.40;2.97;;;;;;;20.89;61.05;97028.88;4976305;28;20227;-67
2023/06/01 08:15:58;;;;;;;2.93;2.60;;;;;;;21.24;56.00;97058.03;5007245;28;20227;-68
2023/06/01 08:18:26;;;;;;;4.47;2.77;;;;;;;21.28;54.97;97055.63;5013839;28;20295;-69
2023/06/01 08:20:53;;;;;;;2.80;2.60;;;;;;;21.44;55.85;97059.25;5010370;28;20365;-68
2023/06/01 08:23:23;;;;;;;2.90;2.60;;;;;;;21.45;53.68;97052.78;4999069;28;20193;-67
2023/06/01 08:25:51;;;;;;;2.83;2.53;;;;;;;21.47;53.99;97058.75;4997861;28;20770;-68
2023/06/01 08:28:19;;;;;;;4.30;2.30;;;;;;;21.54;52.66;97035.06;4965126;28;20620;-68
2023/06/01 08:30:47;;;;;;;5.70;3.00;;;;;;;21.78;52.38;97048.22;4994772;28;20434;-65
2023/06/01 08:33:15;;;;;;;3.37;2.80;;;;;;;21.91;50.07;97056.91;5012741;28;20251;-68
2023/06/01 08:35:43;;;;;;;4.17;2.67;;;;;;;21.92;51.19;97053.97;5013026;28;20572;-66
2023/06/01 08:38:11;;;;;;;4.03;2.80;;;;;;;21.93;50.38;97043.97;5009012;28;20230;-65
2023/06/01 08:40:41;;;;;;;5.63;3.23;;;;;;;22.04;49.09;97050.25;4972584;28;20525;-66
2023/06/01 08:43:15;;;;;;;3.00;2.73;;;;;;;21.94;51.06;97049.13;4970165;28;20324;-66
2023/06/01 08:45:43;;;;;;;3.83;3.03;;;;;;;22.01;52.19;97037.28;4982318;28;20310;-68
2023/06/01 08:48:18;;;;;;;5.33;2.70;;;;;;;22.11;49.85;97043.53;5014226;28;20287;-67
2023/06/01 08:50:50;;;;;;;3.03;2.83;;;;;;;22.23;46.28;97032.53;5014131;28;20400;-65
2023/06/01 08:53:21;;;;;;;4.73;3.10;;;;;;;22.34;48.31;97030.66;5012742;28;20567;-67
2023/06/01 08:55:52;;;;;;;3.60;3.20;;;;;;;22.54;47.53;97034.56;4974512;28;20482;-66
2023/06/01 08:58:20;;;;;;;3.97;2.77;;;;;;;22.68;46.79;97034.88;4970018;28;20224;-68
2023/06/01 09:00:49;;;;;;;3.07;2.83;;;;;;;22.45;47.27;97023.44;4980607;28;20213;-65
2023/06/01 09:03:16;;;;;;;3.47;2.63;;;;;;;22.42;44.68;97032.06;5014537;28;20462;-68
2023/06/01 09:05:44;;;;;;;3.40;3.10;;;;;;;22.73;45.23;97028.66;5013360;28;20213;-67
2023/06/01 09:08:13;;;;;;;3.23;3.03;;;;;;;22.81;44.53;97031.66;5010829;28;20253;-67
2023/06/01 09:10:41;;;;;;;3.33;3.03;;;;;;;22.92;44.64;97023.56;5003276;28;20454;-66
2023/06/01 09:13:10;;;;;;;3.33;3.03;;;;;;;22.92;45.54;97023.56;4965393;28;21059;-66
2023/06/01 09:15:50;;;;;;;3.47;3.17;;;;;;;22.81;44.45;97023.56;4982267;28;21095;-67
2023/06/01 09:18:18;;;;;;;4.30;3.10;;;;;;;23.13;43.64;97027.13;5010227;28;20228;-68
2023/06/01 09:20:46;;;;;;;3.43;3.13;;;;;;;23.42;45.72;97019.31;5012445;28;20362;-65
2023/06/01 09:23:24;;;;;;;3.87;2.80;;;;;;;23.56;42.77;97026.84;5013771;28;20205;-66
2023/06/01 09:26:05;;;;;;;3.67;3.37;;;;;;;23.56;42.53;97022.28;5011461;28;20320;-67
2023/06/01 09:28:58;;;;;;;4.00;3.30;;;;;;;23.46;40.68;97021.47;4958747;28;20333;-68
2023/06/01 09:31:36;;;;;;;9.73;8.90;;;;;;;22.94;42.46;97019.53;4996352;28;20204;-66
2023/06/01 09:34:05;;;;;;;5.33;3.07;;;;;;;23.25;42.96;97018.75;5011693;28;20231;-66
2023/06/01 09:36:33;;;;;;;3.20;2.90;;;;;;;23.46;42.68;97007.94;5007100;28;20286;-68
2023/06/01 09:39:01;;;;;;;4.33;3.27;;;;;;;23.58;42.26;97011.16;5005637;28;20274;-65
2023/06/01 09:41:45;;;;;;;3.43;3.13;;;;;;;23.57;43.75;97009.53;5006788;28;20302;-68
2023/06/01 09:44:14;;;;;;;2.87;2.67;;;;;;;23.76;41.53;97009.00;4959451;28;20388;-68
2023/06/01 09:46:48;;;;;;;3.33;2.77;;;;;;;23.38;41.77;97006.59;5004785;28;20969;-67
2023/06/01 09:49:21;;;;;;;3.23;2.93;;;;;;;23.41;43.59;97006.88;4991263;28;20207;-68
2023/06/01 09:51:49;;;;;;;3.70;3.50;;;;;;;23.31;41.93;97006.06;5009877;28;20211;-68
2023/06/01 09:54:26;;;;;;;4.00;3.53;;;;;;;23.33;42.40;97007.44;5005173;28;20219;-68
2023/06/01 09:56:54;;;;;;;3.30;2.90;;;;;;;23.27;41.88;97003.09;5008212;28;20283;-65
2023/06/01 09:59:44;;;;;;;3.77;3.47;;;;;;;23.25;41.52;97005.25;4959904;28;20345;-67
2023/06/01 10:02:15;;;;;;;3.27;3.07;;;;;;;22.95;41.36;97004.16;5006626;28;20303;-64
2023/06/01 10:04:47;;;;;;;6.33;3.33;;;;;;;23.08;41.72;97000.91;4995024;28;20228;-66
2023/06/01 10:07:15;;;;;;;4.50;3.07;;;;;;;23.24;42.64;96996.34;5011345;28;20308;-68
2023/06/01 10:09:44;;;;;;;3.47;3.17;;;;;;;23.12;41.75;96996.56;5007448;28;20496;-70
2023/06/01 10:12:12;;;;;;;3.43;3.20;;;;;;;22.93;43.20;96992.81;5003557;28;21275;-69
2023/06/01 10:14:42;;;;;;;5.23;3.20;;;;;;;23.36;42.10;96992.53;4961891;28;20614;-66
2023/06/01 10:17:11;;;;;;;3.33;3.10;;;;;;;23.35;41.56;96999.03;5004368;28;20257;-66
2023/06/01 10:19:38;;;;;;;3.47;3.27;;;;;;;23.25;41.58;96989.03;4987888;28;20266;-69
2023/06/01 10:22:07;;;;;;;6.60;3.13;;;;;;;23.40;41.81;96967.41;5005475;28;20205;-67
2023/06/01 10:24:40;;;;;;;3.40;3.10;;;;;;;23.82;40.47;96991.66;5006632;28;20208;-69
2023/06/01 10:27:20;;;;;;;3.07;2.77;;;;;;;23.79;41.19;96986.81;5005607;28;20231;-67
2023/06/01 10:29:50;;;;;;;3.50;3.20;;;;;;;22.99;42.08;96978.22;4959434;28;20214;-68
2023/06/01 10:32:43;;;;;;;4.50;3.33;;;;;;;23.66;41.42;96980.88;5008061;28;20306;-68
2023/06/01 10:35:12;;;;;;;3.40;3.10;;;;;;;24.04;41.47;96974.28;4990592;28;20227;-67
2023/06/01 10:37:39;;;;;;;3.87;3.40;;;;;;;24.38;40.71;96976.31;5002515;28;20724;-68
2023/06/01 10:40:20;;;;;;;3.27;2.97;;;;;;;24.26;42.11;96971.25;5003748;28;20283;-70
2023/06/01 10:42:49;;;;;;;3.40;3.10;;;;;;;24.50;40.92;96970.56;5006466;28;20361;-65
2023/06/01 10:45:39;;;;;;;4.30;3.30;;;;;;;24.58;40.12;96961.84;4953152;28;20309;-66
2023/06/01 10:48:10;;;;;;;3.23;3.00;;;;;;;24.54;40.25;96963.47;5001834;28;21174;-65
2023/06/01 10:50:38;;;;;;;3.10;2.90;;;;;;;24.53;40.82;96956.44;4992585;28;20219;-68
2023/06/01 10:53:24;;;;;;;5.10;3.50;;;;;;;24.68;39.66;96967.22;5010541;28;20239;-66
2023/06/01 10:56:19;;;;;;;4.13;3.23;;;;;;;24.85;40.14;96966.03;5005464;28;20206;-70
2023/06/01 10:58:48;;;;;;;3.57;3.20;;;;;;;24.68;38.91;96958.25;5004988;28;20220;-66
2023/06/01 11:01:21;;;;;;;7.00;3.17;;;;;;;24.19;38.76;96955.28;4962837;28;20221;-66
2023/06/01 11:03:50;;;;;;;4.23;3.10;;;;;;;24.01;38.41;96959.44;5012997;28;20286;-67
2023/06/01 11:06:26;;;;;;;2.60;2.50;;;;;;;24.05;38.88;96952.38;4993911;28;20225;-71
2023/06/01 11:08:59;;;;;;;3.43;3.13;;;;;;;24.48;39.06;96956.50;5016611;28;20218;-67
2023/06/01 11:11:59;;;;;;;3.83;3.47;;;;;;;24.39;39.00;96956.25;5008698;28;20261;-68
2023/06/01 11:14:29;;;;;;;3.30;2.80;;;;;;;24.99;38.28;96955.34;5003826;28;20251;-69
2023/06/01 11:17:30;;;;;;;3.63;2.90;;;;;;;24.71;38.07;96944.16;4967369;28;20243;-63
2023/06/01 11:20:05;;;;;;;3.10;2.80;;;;;;;24.83;38.05;96941.13;5016187;28;20761;-66
2023/06/01 11:22:37;;;;;;;4.33;2.90;;;;;;;24.70;37.72;96937.94;4988673;28;20213;-67
2023/06/01 11:25:06;;;;;;;3.10;2.80;;;;;;;25.20;38.10;96936.22;5005069;28;20204;-66
2023/06/01 11:27:35;;;;;;;3.20;3.00;;;;;;;25.26;37.81;96930.44;5002032;28;20317;-66
2023/06/01 11:30:04;;;;;;;3.27;2.93;;;;;;;25.30;38.07;96933.41;5009020;28;20654;-69
2023/06/01 11:32:36;;;;;;;4.27;3.27;;;;;;;25.52;37.21;96932.94;4965623;28;20316;-69
2023/06/01 11:35:17;;;;;;;3.30;3.00;;;;;;;25.63;38.57;96924.69;5011291;28;20271;-68
2023/06/01 11:37:47;;;;;;;3.43;2.73;;;;;;;25.57;36.13;96918.50;4987301;28;20926;-66
2023/06/01 11:40:15;;;;;;;2.80;2.70;;;;;;;26.05;38.63;96920.38;5007310;28;20240;-68